Time;durP1;ratioP1;P1;durP2;ratioP2;P2;SDS_P1;SDS_P2;PMS_P1;PMS_P2;Temp;Humidity;BMP_temperature;BMP_pressure;BME280_temperature;BME280_humidity;BME280_pressure;Samples;Min_cycle;Max_cycle;Signal;HPM_P1;HPM_P2
2023/04/10 00:00:10;;;;;;;19.92;10.43;;;;;;;;;;5027556;28;20538;-77
2023/04/10 00:02:37;;;;;;;20.48;10.60;;;;;;;;;;5026883;28;20805;-76
2023/04/10 00:05:03;;;;;;;19.17;10.38;;;;;;;;;;5028404;28;20054;-78
2023/04/10 00:07:30;;;;;;;17.77;10.65;;;;;;;;;;5018237;28;20057;-77
2023/04/10 00:09:56;;;;;;;19.40;9.80;;;;;;;;;;5014141;28;20144;-78
2023/04/10 00:12:24;;;;;;;17.45;9.82;;;;;;;;;;5012474;28;20050;-76
2023/04/10 00:14:50;;;;;;;17.17;9.80;;;;;;;;;;5013280;28;20051;-78
2023/04/10 00:17:16;;;;;;;16.98;9.10;;;;;;;;;;5006806;28;20050;-77
2023/04/10 00:19:43;;;;;;;17.80;9.38;;;;;;;;;;5018325;28;20060;-78
2023/04/10 00:22:09;;;;;;;15.95;8.40;;;;;;;;;;5027996;28;20077;-77
2023/04/10 00:24:35;;;;;;;16.23;8.82;;;;;;;;;;5026725;28;20062;-76
2023/04/10 00:27:05;;;;;;;13.95;8.07;;;;;;;;;;5007706;28;20062;-77
2023/04/10 00:29:31;;;;;;;15.80;8.45;;;;;;;;;;5015216;28;20091;-77
2023/04/10 00:31:57;;;;;;;16.75;9.43;;;;;;;;;;5026379;28;20508;-77
2023/04/10 00:34:24;;;;;;;17.00;8.23;;;;;;;;;;5026430;28;20053;-76
2023/04/10 00:36:51;;;;;;;17.95;8.60;;;;;;;;;;5019821;28;20623;-78
2023/04/10 00:39:17;;;;;;;14.25;8.35;;;;;;;;;;5022081;28;20068;-76
2023/04/10 00:41:44;;;;;;;15.68;8.30;;;;;;;;;;5018122;28;20034;-78
2023/04/10 00:44:11;;;;;;;15.73;7.72;;;;;;;;;;5015945;28;20081;-78
2023/04/10 00:46:38;;;;;;;15.13;7.72;;;;;;;;;;5020370;28;20149;-77
2023/04/10 00:49:05;;;;;;;14.20;7.70;;;;;;;;;;5011351;28;20050;-77
2023/04/10 00:51:31;;;;;;;13.80;8.00;;;;;;;;;;5027936;28;20098;-76
2023/04/10 00:53:59;;;;;;;16.33;8.18;;;;;;;;;;5026187;28;20065;-76
2023/04/10 00:56:25;;;;;;;15.68;7.72;;;;;;;;;;5015096;28;20061;-77
2023/04/10 00:58:51;;;;;;;14.30;7.70;;;;;;;;;;5010496;28;20062;-77
2023/04/10 01:01:18;;;;;;;14.98;7.82;;;;;;;;;;5019610;28;20056;-77
2023/04/10 01:03:44;;;;;;;14.52;7.47;;;;;;;;;;5019472;28;20061;-78
2023/04/10 01:06:20;;;;;;;13.10;7.13;;;;;;;;;;5012337;28;20064;-78
2023/04/10 01:08:47;;;;;;;15.15;8.23;;;;;;;;;;5012048;28;21081;-77
2023/04/10 01:11:25;;;;;;;13.90;7.53;;;;;;;;;;5007069;28;20058;-77
2023/04/10 01:13:57;;;;;;;12.75;7.25;;;;;;;;;;5010451;28;20141;-78
2023/04/10 01:16:26;;;;;;;14.00;7.53;;;;;;;;;;5008265;28;20050;-78
2023/04/10 01:18:56;;;;;;;14.90;7.78;;;;;;;;;;5006994;28;20580;-78
2023/04/10 01:21:23;;;;;;;15.18;8.00;;;;;;;;;;5011776;28;20042;-76
2023/04/10 01:23:56;;;;;;;14.55;7.40;;;;;;;;;;5008882;28;20058;-78
2023/04/10 01:26:45;;;;;;;15.35;7.78;;;;;;;;;;5013356;28;20065;-78
2023/04/10 01:29:18;;;;;;;12.93;7.35;;;;;;;;;;4983667;28;20072;-78
2023/04/10 01:31:52;;;;;;;13.77;7.43;;;;;;;;;;5007698;28;20141;-77
2023/04/10 01:34:24;;;;;;;14.00;7.65;;;;;;;;;;5020020;28;20054;-77
2023/04/10 01:36:54;;;;;;;14.27;7.60;;;;;;;;;;5025081;28;20097;-78
2023/04/10 01:39:21;;;;;;;13.25;7.07;;;;;;;;;;5025812;28;20085;-78
2023/04/10 01:41:49;;;;;;;14.38;7.20;;;;;;;;;;5024217;28;20053;-77
2023/04/10 01:44:17;;;;;;;13.25;7.20;;;;;;;;;;5025536;28;20081;-77
2023/04/10 01:46:44;;;;;;;14.85;7.47;;;;;;;;;;5007754;28;20192;-77
2023/04/10 01:49:12;;;;;;;14.38;6.75;;;;;;;;;;5006499;28;20169;-78
2023/04/10 01:51:38;;;;;;;11.77;6.95;;;;;;;;;;5007285;28;20050;-76
2023/04/10 01:54:05;;;;;;;13.90;7.68;;;;;;;;;;5007373;28;20046;-76
2023/04/10 01:56:32;;;;;;;12.70;7.18;;;;;;;;;;5008094;28;20050;-76
2023/04/10 01:58:59;;;;;;;14.23;7.13;;;;;;;;;;5006138;28;20058;-76
2023/04/10 02:01:25;;;;;;;13.95;6.80;;;;;;;;;;5008516;28;20089;-77
2023/04/10 02:03:56;;;;;;;13.68;6.90;;;;;;;;;;5014771;28;20065;-78
2023/04/10 02:06:32;;;;;;;14.25;7.40;;;;;;;;;;5026310;28;20062;-76
2023/04/10 02:09:08;;;;;;;12.75;7.32;;;;;;;;;;5021812;28;20050;-77
2023/04/10 02:11:43;;;;;;;14.10;7.30;;;;;;;;;;5021977;28;20093;-76
2023/04/10 02:14:11;;;;;;;10.60;6.18;;;;;;;;;;5007927;28;20093;-78
2023/04/10 02:16:37;;;;;;;13.73;6.95;;;;;;;;;;5006386;28;20105;-77
2023/04/10 02:19:04;;;;;;;13.23;6.93;;;;;;;;;;5024165;28;20054;-77
2023/04/10 02:21:32;;;;;;;12.13;6.53;;;;;;;;;;5024608;28;20121;-78
2023/04/10 02:23:59;;;;;;;12.82;6.68;;;;;;;;;;5021884;28;20054;-76
2023/04/10 02:26:25;;;;;;;13.10;7.25;;;;;;;;;;5003410;28;20707;-78
2023/04/10 02:28:51;;;;;;;12.57;6.88;;;;;;;;;;5004984;28;20041;-78
2023/04/10 02:31:18;;;;;;;14.13;7.07;;;;;;;;;;5006026;28;20484;-77
2023/04/10 02:33:44;;;;;;;13.05;6.82;;;;;;;;;;5024115;28;20895;-78
2023/04/10 02:36:11;;;;;;;13.23;6.93;;;;;;;;;;5017832;28;20054;-76
2023/04/10 02:38:38;;;;;;;13.85;7.05;;;;;;;;;;5024902;28;20061;-76
2023/04/10 02:41:04;;;;;;;12.77;6.70;;;;;;;;;;5024509;28;20064;-77
2023/04/10 02:43:33;;;;;;;12.75;7.07;;;;;;;;;;5023603;28;20085;-76
2023/04/10 02:46:00;;;;;;;15.50;6.68;;;;;;;;;;5024064;28;20921;-77
2023/04/10 02:48:26;;;;;;;13.65;6.68;;;;;;;;;;5025841;28;20319;-78
2023/04/10 02:50:56;;;;;;;13.98;6.78;;;;;;;;;;5011871;28;20054;-78
2023/04/10 02:53:24;;;;;;;11.50;6.55;;;;;;;;;;5025136;28;20783;-77
2023/04/10 02:55:51;;;;;;;13.48;6.88;;;;;;;;;;5030094;28;20065;-78
2023/04/10 02:58:18;;;;;;;13.10;7.13;;;;;;;;;;5027847;28;20563;-78
2023/04/10 03:00:48;;;;;;;13.32;6.80;;;;;;;;;;5029574;28;20541;-78
2023/04/10 03:03:14;;;;;;;15.95;7.05;;;;;;;;;;5010249;28;20057;-77
2023/04/10 03:05:41;;;;;;;14.85;7.50;;;;;;;;;;5017345;28;20089;-78
2023/04/10 03:08:07;;;;;;;13.57;6.95;;;;;;;;;;5029811;28;20046;-78
2023/04/10 03:10:34;;;;;;;14.68;7.53;;;;;;;;;;5029888;28;20058;-78
2023/04/10 03:13:00;;;;;;;12.77;6.85;;;;;;;;;;5029175;28;20064;-77
2023/04/10 03:15:26;;;;;;;13.05;7.13;;;;;;;;;;5015169;28;20061;-76
2023/04/10 03:17:52;;;;;;;13.77;7.35;;;;;;;;;;5027712;28;20519;-77
2023/04/10 03:20:19;;;;;;;11.57;6.38;;;;;;;;;;5017565;28;20054;-77
2023/04/10 03:22:45;;;;;;;15.20;6.97;;;;;;;;;;5013223;28;20057;-78
2023/04/10 03:25:11;;;;;;;12.68;6.80;;;;;;;;;;5008676;28;20064;-78
2023/04/10 03:27:38;;;;;;;14.80;6.63;;;;;;;;;;5018161;28;20072;-78
2023/04/10 03:30:05;;;;;;;13.30;7.47;;;;;;;;;;5024666;28;20141;-78
2023/04/10 03:32:31;;;;;;;13.65;7.53;;;;;;;;;;5024782;28;20857;-76
2023/04/10 03:34:58;;;;;;;13.75;7.30;;;;;;;;;;5013032;28;20066;-78
2023/04/10 03:37:26;;;;;;;14.55;7.53;;;;;;;;;;5007103;28;20535;-77
2023/04/10 03:39:52;;;;;;;12.98;7.43;;;;;;;;;;5021986;28;20057;-77
2023/04/10 03:42:19;;;;;;;12.80;6.70;;;;;;;;;;5025821;28;20134;-78
2023/04/10 03:44:45;;;;;;;14.20;7.32;;;;;;;;;;5017824;28;20062;-78
2023/04/10 03:47:12;;;;;;;11.85;6.80;;;;;;;;;;5008601;28;20066;-76
2023/04/10 03:49:38;;;;;;;12.20;6.45;;;;;;;;;;5023357;28;20061;-77
2023/04/10 03:52:06;;;;;;;13.35;7.32;;;;;;;;;;5024902;28;20310;-75
2023/04/10 03:54:33;;;;;;;13.18;7.22;;;;;;;;;;5008369;28;20065;-77
2023/04/10 03:57:00;;;;;;;12.60;7.13;;;;;;;;;;5009933;28;20489;-78
2023/04/10 03:59:26;;;;;;;11.15;6.10;;;;;;;;;;5028607;28;20068;-76
2023/04/10 04:02:03;;;;;;;13.73;7.22;;;;;;;;;;5022804;28;20062;-78
2023/04/10 04:04:30;;;;;;;14.40;7.05;;;;;;;;;;5025560;28;20054;-77
2023/04/10 04:06:56;;;;;;;13.55;7.35;;;;;;;;;;5021752;28;20054;-79
2023/04/10 04:09:23;;;;;;;14.18;7.80;;;;;;;;;;5008302;28;20085;-77
2023/04/10 04:11:49;;;;;;;12.30;6.43;;;;;;;;;;5025087;28;20053;-76
2023/04/10 04:14:15;;;;;;;16.33;7.13;;;;;;;;;;5022639;28;20101;-77
2023/04/10 04:16:42;;;;;;;12.48;6.68;;;;;;;;;;5028711;28;20108;-76
2023/04/10 04:19:08;;;;;;;12.43;6.82;;;;;;;;;;5029197;28;20463;-77
2023/04/10 04:21:35;;;;;;;14.25;7.45;;;;;;;;;;5013809;28;20050;-78
2023/04/10 04:24:01;;;;;;;13.00;6.43;;;;;;;;;;5016005;28;20054;-79
2023/04/10 04:26:27;;;;;;;12.63;6.97;;;;;;;;;;5027024;28;20054;-76
2023/04/10 04:28:54;;;;;;;12.82;7.40;;;;;;;;;;5026316;28;20050;-78
2023/04/10 04:31:20;;;;;;;14.05;7.47;;;;;;;;;;5020637;28;20069;-76
2023/04/10 04:33:47;;;;;;;11.75;6.93;;;;;;;;;;5008440;28;20035;-78
2023/04/10 04:36:13;;;;;;;13.02;7.15;;;;;;;;;;5026318;28;20077;-78
2023/04/10 04:38:39;;;;;;;12.93;7.47;;;;;;;;;;5027875;28;20590;-78
2023/04/10 04:41:06;;;;;;;14.52;7.97;;;;;;;;;;5027857;28;20922;-77
2023/04/10 04:43:32;;;;;;;14.00;7.72;;;;;;;;;;5019648;28;20066;-77
2023/04/10 04:45:58;;;;;;;12.90;7.22;;;;;;;;;;5006848;28;20156;-78
2023/04/10 04:48:25;;;;;;;15.23;7.80;;;;;;;;;;5009306;28;20045;-77
2023/04/10 04:50:51;;;;;;;14.60;7.47;;;;;;;;;;5008550;28;20054;-77
2023/04/10 04:53:18;;;;;;;14.55;7.50;;;;;;;;;;5016240;28;20064;-78
2023/04/10 04:55:44;;;;;;;14.52;7.53;;;;;;;;;;5029022;28;20515;-78
2023/04/10 04:58:10;;;;;;;12.77;7.75;;;;;;;;;;5016269;28;20101;-78
2023/04/10 05:00:37;;;;;;;13.93;7.78;;;;;;;;;;5010790;28;20045;-78
2023/04/10 05:03:05;;;;;;;14.38;7.35;;;;;;;;;;5020044;28;20168;-75
2023/04/10 05:05:31;;;;;;;13.85;7.15;;;;;;;;;;5028156;28;20140;-76
2023/04/10 05:07:57;;;;;;;15.93;8.13;;;;;;;;;;5026206;28;20518;-78
2023/04/10 05:10:24;;;;;;;14.52;7.65;;;;;;;;;;5027489;28;20104;-75
2023/04/10 05:12:50;;;;;;;15.18;8.05;;;;;;;;;;5025982;28;20058;-78
2023/04/10 05:15:17;;;;;;;14.00;7.75;;;;;;;;;;5014612;28;20050;-77
2023/04/10 05:17:43;;;;;;;13.98;7.60;;;;;;;;;;5025796;28;21032;-78
2023/04/10 05:20:10;;;;;;;15.45;8.38;;;;;;;;;;5007074;28;20206;-76
2023/04/10 05:22:36;;;;;;;15.48;7.50;;;;;;;;;;5011272;28;20045;-78
2023/04/10 05:25:03;;;;;;;15.70;7.72;;;;;;;;;;5019041;28;20192;-75
2023/04/10 05:27:29;;;;;;;14.85;7.28;;;;;;;;;;5018897;28;20050;-76
2023/04/10 05:29:55;;;;;;;15.68;8.32;;;;;;;;;;5007661;28;20878;-77
2023/04/10 05:32:22;;;;;;;14.88;7.88;;;;;;;;;;5021827;28;20054;-77
2023/04/10 05:34:48;;;;;;;15.77;7.88;;;;;;;;;;5026872;28;20057;-78
2023/04/10 05:37:15;;;;;;;15.40;7.60;;;;;;;;;;5021155;28;20060;-78
2023/04/10 05:39:41;;;;;;;15.27;7.25;;;;;;;;;;5006072;28;20517;-78
2023/04/10 05:42:07;;;;;;;14.18;7.43;;;;;;;;;;5013246;28;20084;-77
2023/04/10 05:44:34;;;;;;;14.85;7.35;;;;;;;;;;5013050;28;21080;-76
2023/04/10 05:47:00;;;;;;;16.45;7.57;;;;;;;;;;5006961;28;21043;-77
2023/04/10 05:49:26;;;;;;;15.65;7.97;;;;;;;;;;5019023;28;20085;-78
2023/04/10 05:51:53;;;;;;;14.65;7.53;;;;;;;;;;5016440;28;20060;-77
2023/04/10 05:54:19;;;;;;;14.23;7.40;;;;;;;;;;5023999;28;20050;-75
2023/04/10 05:56:45;;;;;;;14.07;7.75;;;;;;;;;;5023955;28;20050;-78
2023/04/10 05:59:12;;;;;;;16.77;6.93;;;;;;;;;;5009561;28;20058;-77
2023/04/10 06:01:39;;;;;;;14.65;7.75;;;;;;;;;;5014066;28;20049;-78
2023/04/10 06:04:05;;;;;;;16.73;7.70;;;;;;;;;;5019343;28;20054;-76
2023/04/10 06:06:32;;;;;;;13.75;7.07;;;;;;;;;;5006967;28;20062;-78
2023/04/10 06:08:58;;;;;;;12.88;6.97;;;;;;;;;;5011978;28;20053;-78
2023/04/10 06:11:24;;;;;;;12.38;6.85;;;;;;;;;;5006678;28;20085;-76
2023/04/10 06:13:51;;;;;;;14.13;7.57;;;;;;;;;;5026807;28;20057;-78
2023/04/10 06:16:17;;;;;;;13.13;6.13;;;;;;;;;;5025666;28;20145;-78
2023/04/10 06:18:43;;;;;;;12.30;7.07;;;;;;;;;;5026168;28;20058;-76
2023/04/10 06:21:10;;;;;;;12.55;6.25;;;;;;;;;;5025469;28;21112;-78
2023/04/10 06:23:36;;;;;;;12.52;6.45;;;;;;;;;;5022405;28;20061;-78
2023/04/10 06:26:03;;;;;;;12.27;6.50;;;;;;;;;;5024387;28;20508;-78
2023/04/10 06:28:29;;;;;;;14.23;6.70;;;;;;;;;;5028751;28;20054;-78
2023/04/10 06:30:56;;;;;;;13.63;6.50;;;;;;;;;;5017097;28;20065;-75
2023/04/10 06:33:22;;;;;;;11.93;6.72;;;;;;;;;;5013138;28;20047;-76
2023/04/10 06:35:51;;;;;;;12.23;6.05;;;;;;;;;;5023001;28;20062;-78
2023/04/10 06:38:18;;;;;;;14.88;7.25;;;;;;;;;;5026076;28;20123;-78
2023/04/10 06:40:44;;;;;;;11.20;6.50;;;;;;;;;;5021071;28;20055;-76
2023/04/10 06:43:10;;;;;;;12.23;5.93;;;;;;;;;;5009880;28;21274;-78
2023/04/10 06:45:37;;;;;;;11.63;6.88;;;;;;;;;;5021202;28;20062;-75
2023/04/10 06:48:03;;;;;;;16.30;6.38;;;;;;;;;;5029101;28;20057;-76
2023/04/10 06:50:30;;;;;;;10.70;5.50;;;;;;;;;;5029591;28;20421;-78
2023/04/10 06:52:58;;;;;;;12.10;6.43;;;;;;;;;;5028369;28;20038;-78
2023/04/10 06:55:25;;;;;;;13.68;6.97;;;;;;;;;;5028952;28;21073;-78
2023/04/10 06:57:52;;;;;;;11.23;6.25;;;;;;;;;;5019954;28;20050;-76
2023/04/10 07:00:18;;;;;;;12.52;7.22;;;;;;;;;;5013971;28;20053;-78
2023/04/10 07:02:45;;;;;;;12.18;6.53;;;;;;;;;;5026396;28;20141;-78
2023/04/10 07:05:12;;;;;;;10.68;5.78;;;;;;;;;;5018155;28;20062;-76
2023/04/10 07:07:38;;;;;;;11.85;6.72;;;;;;;;;;5008202;28;20050;-78
2023/04/10 07:10:05;;;;;;;12.82;6.82;;;;;;;;;;5010215;28;20547;-78
2023/04/10 07:12:32;;;;;;;12.88;6.82;;;;;;;;;;5013814;28;20053;-78
2023/04/10 07:14:59;;;;;;;12.90;6.65;;;;;;;;;;5014802;28;20101;-77
2023/04/10 07:17:25;;;;;;;12.05;6.43;;;;;;;;;;5009640;28;20066;-78
2023/04/10 07:19:51;;;;;;;13.20;7.07;;;;;;;;;;5008109;28;20054;-78
2023/04/10 07:22:18;;;;;;;12.40;6.20;;;;;;;;;;5024191;28;20046;-77
2023/04/10 07:24:44;;;;;;;12.35;6.95;;;;;;;;;;5027521;28;20149;-78
2023/04/10 07:27:11;;;;;;;10.82;6.28;;;;;;;;;;5026543;28;20057;-78
2023/04/10 07:29:38;;;;;;;12.63;6.22;;;;;;;;;;5017509;28;20528;-78
2023/04/10 07:32:04;;;;;;;11.95;6.32;;;;;;;;;;5023755;28;20057;-78
2023/04/10 07:34:31;;;;;;;12.05;6.47;;;;;;;;;;5012227;28;21000;-75
2023/04/10 07:36:57;;;;;;;11.20;6.32;;;;;;;;;;5014461;28;20363;-76
2023/04/10 07:39:24;;;;;;;12.15;6.40;;;;;;;;;;5022500;28;20053;-77
2023/04/10 07:41:52;;;;;;;11.52;6.70;;;;;;;;;;5011284;28;20054;-76
2023/04/10 07:44:18;;;;;;;10.20;6.63;;;;;;;;;;5017445;28;20064;-77
2023/04/10 07:46:45;;;;;;;13.43;6.68;;;;;;;;;;5027010;28;20127;-77
2023/04/10 07:49:11;;;;;;;15.70;7.53;;;;;;;;;;5015471;28;20509;-77
2023/04/10 07:51:38;;;;;;;12.95;6.95;;;;;;;;;;5019081;28;21340;-78
2023/04/10 07:54:04;;;;;;;12.63;6.82;;;;;;;;;;5016291;28;20046;-77
2023/04/10 07:56:30;;;;;;;13.38;6.70;;;;;;;;;;5017869;28;20800;-78
2023/04/10 07:59:00;;;;;;;13.38;6.70;;;;;;;;;;5024844;28;20133;-77
2023/04/10 08:01:26;;;;;;;11.63;7.07;;;;;;;;;;5013370;28;20064;-77
2023/04/10 08:03:54;;;;;;;13.15;6.95;;;;;;;;;;5027758;28;20054;-77
2023/04/10 08:06:20;;;;;;;13.25;6.80;;;;;;;;;;5029081;28;20068;-78
2023/04/10 08:08:47;;;;;;;12.68;7.18;;;;;;;;;;5015040;28;20145;-77
2023/04/10 08:11:26;;;;;;;12.98;7.30;;;;;;;;;;5016704;28;20096;-77
2023/04/10 08:13:53;;;;;;;13.07;7.38;;;;;;;;;;5021166;28;20173;-77
2023/04/10 08:16:23;;;;;;;12.18;7.35;;;;;;;;;;5019087;28;20149;-77
2023/04/10 08:18:51;;;;;;;12.20;6.78;;;;;;;;;;5007086;28;20134;-78
2023/04/10 08:21:18;;;;;;;12.27;7.47;;;;;;;;;;5008419;28;20057;-77
2023/04/10 08:23:47;;;;;;;12.85;7.53;;;;;;;;;;5006153;28;20061;-78
2023/04/10 08:26:14;;;;;;;12.60;7.35;;;;;;;;;;5009310;28;20524;-77
2023/04/10 08:28:40;;;;;;;13.00;7.10;;;;;;;;;;5022184;28;20056;-76
2023/04/10 08:31:07;;;;;;;12.50;6.30;;;;;;;;;;5027625;28;20504;-77
2023/04/10 08:33:33;;;;;;;11.90;6.97;;;;;;;;;;5015868;28;20070;-77
2023/04/10 08:36:00;;;;;;;12.13;7.53;;;;;;;;;;5024128;28;20064;-79
2023/04/10 08:38:26;;;;;;;13.25;7.20;;;;;;;;;;5011088;28;20136;-79
2023/04/10 08:40:53;;;;;;;12.10;7.53;;;;;;;;;;5007299;28;20153;-77
2023/04/10 08:43:20;;;;;;;13.02;7.35;;;;;;;;;;5018666;28;20113;-78
2023/04/10 08:45:46;;;;;;;18.58;8.63;;;;;;;;;;5026142;28;20061;-79
2023/04/10 08:48:13;;;;;;;14.00;7.38;;;;;;;;;;5023590;28;20058;-78
2023/04/10 08:50:40;;;;;;;13.93;7.65;;;;;;;;;;5007611;28;20150;-79
2023/04/10 08:53:11;;;;;;;12.48;6.97;;;;;;;;;;5009020;28;20050;-78
2023/04/10 08:55:38;;;;;;;12.20;6.78;;;;;;;;;;5010095;28;20081;-78
2023/04/10 08:58:04;;;;;;;12.43;6.82;;;;;;;;;;5026127;28;20061;-77
2023/04/10 09:00:37;;;;;;;12.00;7.07;;;;;;;;;;5019942;28;20093;-77
2023/04/10 09:03:07;;;;;;;12.70;6.97;;;;;;;;;;5021838;28;20912;-78
2023/04/10 09:05:34;;;;;;;16.77;7.35;;;;;;;;;;5013350;28;20054;-78
2023/04/10 09:08:00;;;;;;;12.43;6.97;;;;;;;;;;5009078;28;20043;-78
2023/04/10 09:10:27;;;;;;;11.55;6.75;;;;;;;;;;5010601;28;20061;-77
2023/04/10 09:12:53;;;;;;;13.48;6.90;;;;;;;;;;5020870;28;20074;-77
2023/04/10 09:15:20;;;;;;;13.27;7.35;;;;;;;;;;5009932;28;20141;-77
2023/04/10 09:18:04;;;;;;;11.98;7.05;;;;;;;;;;5007966;28;20453;-77
2023/04/10 09:20:32;;;;;;;13.15;7.35;;;;;;;;;;5017529;28;20081;-77
2023/04/10 09:22:59;;;;;;;12.15;6.93;;;;;;;;;;5006522;28;20732;-78
2023/04/10 09:25:30;;;;;;;11.90;6.53;;;;;;;;;;5004750;28;20054;-78
2023/04/10 09:28:00;;;;;;;11.23;6.75;;;;;;;;;;5005680;28;20064;-78
2023/04/10 09:30:38;;;;;;;12.07;6.80;;;;;;;;;;5021949;28;20088;-77
2023/04/10 09:33:23;;;;;;;13.93;7.72;;;;;;;;;;5014818;28;20057;-78
2023/04/10 09:35:50;;;;;;;12.05;6.63;;;;;;;;;;5019515;28;20054;-77
2023/04/10 09:38:17;;;;;;;10.95;6.63;;;;;;;;;;5010167;28;20047;-77
2023/04/10 09:40:44;;;;;;;11.32;6.65;;;;;;;;;;5014428;28;20053;-80
2023/04/10 09:43:19;;;;;;;13.10;7.57;;;;;;;;;;5009349;28;20121;-74
2023/04/10 09:45:47;;;;;;;11.45;6.20;;;;;;;;;;5018984;28;20062;-77
2023/04/10 09:48:13;;;;;;;11.25;7.05;;;;;;;;;;5024561;28;20085;-79
2023/04/10 09:50:39;;;;;;;12.55;6.88;;;;;;;;;;5013458;28;20066;-79
2023/04/10 09:53:12;;;;;;;10.88;6.88;;;;;;;;;;5022424;28;20535;-78
2023/04/10 09:55:39;;;;;;;9.77;5.88;;;;;;;;;;5020126;28;20629;-74
2023/04/10 09:58:06;;;;;;;11.50;6.45;;;;;;;;;;5022229;28;20058;-78
2023/04/10 10:00:37;;;;;;;11.25;5.68;;;;;;;;;;5015692;28;20057;-78
2023/04/10 10:03:06;;;;;;;10.88;6.45;;;;;;;;;;5014522;28;20061;-79
2023/04/10 10:05:34;;;;;;;9.98;6.38;;;;;;;;;;5016427;28;20161;-77
2023/04/10 10:08:00;;;;;;;11.65;6.75;;;;;;;;;;5011142;28;20060;-78
2023/04/10 10:10:27;;;;;;;10.43;6.20;;;;;;;;;;5020589;28;20060;-78
2023/04/10 10:12:55;;;;;;;15.55;6.57;;;;;;;;;;5011241;28;20058;-78
2023/04/10 10:15:28;;;;;;;10.57;6.03;;;;;;;;;;5023908;28;20057;-78
2023/04/10 10:18:07;;;;;;;11.95;6.18;;;;;;;;;;5017311;28;20760;-78
2023/04/10 10:20:35;;;;;;;9.65;6.05;;;;;;;;;;5023826;28;20054;-78
2023/04/10 10:23:03;;;;;;;11.65;6.55;;;;;;;;;;5020294;28;20053;-79
2023/04/10 10:25:30;;;;;;;11.60;6.53;;;;;;;;;;5018664;28;20085;-78
2023/04/10 10:27:59;;;;;;;11.20;6.90;;;;;;;;;;5016823;28;20687;-77
2023/04/10 10:30:25;;;;;;;12.05;6.50;;;;;;;;;;5019744;28;20053;-78
2023/04/10 10:32:57;;;;;;;10.23;6.03;;;;;;;;;;5023751;28;20185;-77
2023/04/10 10:35:25;;;;;;;10.13;6.32;;;;;;;;;;5019877;28;20062;-78
2023/04/10 10:37:55;;;;;;;9.93;6.15;;;;;;;;;;5023238;28;20061;-79
2023/04/10 10:40:24;;;;;;;10.95;6.50;;;;;;;;;;5011107;28;20054;-79
2023/04/10 10:42:59;;;;;;;10.15;5.90;;;;;;;;;;5022191;28;20060;-79
2023/04/10 10:45:44;;;;;;;10.18;6.40;;;;;;;;;;5025491;28;20141;-78
2023/04/10 10:48:11;;;;;;;9.32;5.95;;;;;;;;;;5016954;28;20096;-79
2023/04/10 10:50:49;;;;;;;9.40;5.85;;;;;;;;;;5018685;28;20619;-78
2023/04/10 10:53:31;;;;;;;10.15;5.93;;;;;;;;;;5006187;28;20184;-76
2023/04/10 10:55:58;;;;;;;10.10;5.95;;;;;;;;;;5017097;28;20501;-78
2023/04/10 10:58:43;;;;;;;10.00;6.13;;;;;;;;;;5011562;28;20056;-79
2023/04/10 11:01:09;;;;;;;11.18;5.78;;;;;;;;;;5011602;28;20057;-80
2023/04/10 11:03:36;;;;;;;9.25;5.30;;;;;;;;;;5021827;28;20057;-82
2023/04/10 11:06:06;;;;;;;9.05;5.35;;;;;;;;;;5019805;28;20058;-80
2023/04/10 11:08:35;;;;;;;10.52;6.03;;;;;;;;;;5021360;28;20042;-81
2023/04/10 11:11:04;;;;;;;11.80;6.95;;;;;;;;;;5025361;28;20480;-79
2023/04/10 11:13:31;;;;;;;10.88;6.57;;;;;;;;;;5021937;28;20058;-79
2023/04/10 11:16:01;;;;;;;11.88;6.13;;;;;;;;;;5025181;28;20053;-80
2023/04/10 11:18:43;;;;;;;10.43;5.75;;;;;;;;;;5025389;28;20058;-80
2023/04/10 11:21:10;;;;;;;8.27;5.22;;;;;;;;;;5020501;28;20058;-79
2023/04/10 11:23:37;;;;;;;8.88;5.88;;;;;;;;;;5023350;28;20855;-80
2023/04/10 11:26:05;;;;;;;10.43;6.18;;;;;;;;;;5014429;28;20523;-80
2023/04/10 11:28:31;;;;;;;10.52;6.30;;;;;;;;;;5016305;28;20053;-79
2023/04/10 11:31:18;;;;;;;9.18;5.95;;;;;;;;;;5011209;28;20054;-81
2023/04/10 11:33:46;;;;;;;9.30;5.50;;;;;;;;;;5017124;28;20453;-79
2023/04/10 11:36:13;;;;;;;9.88;5.90;;;;;;;;;;5009503;28;20145;-79
2023/04/10 11:38:40;;;;;;;9.43;5.88;;;;;;;;;;5024640;28;20054;-80
2023/04/10 11:41:06;;;;;;;9.75;5.80;;;;;;;;;;5019648;28;20520;-79
2023/04/10 11:43:33;;;;;;;10.02;5.75;;;;;;;;;;5019510;28;20058;-79
2023/04/10 11:46:04;;;;;;;9.00;5.68;;;;;;;;;;5015485;28;20060;-79
2023/04/10 11:48:35;;;;;;;10.35;6.00;;;;;;;;;;5020779;28;20050;-80
2023/04/10 11:51:05;;;;;;;;;;;;;;;;;;5024975;28;20056;-79
2023/04/10 11:53:31;;;;;;;9.80;5.68;;;;;;;;;;5020836;28;48110;-78
2023/04/10 11:55:59;;;;;;;8.75;5.70;;;;;;;;;;5016409;28;20086;-80
2023/04/10 11:58:27;;;;;;;8.93;5.25;;;;;;;;;;5026123;28;20046;-82
2023/04/10 12:01:00;;;;;;;8.55;5.15;;;;;;;;;;5026572;28;20054;-82
2023/04/10 12:03:38;;;;;;;8.00;5.13;;;;;;;;;;5025583;28;20053;-80
2023/04/10 12:06:09;;;;;;;8.30;5.22;;;;;;;;;;5022026;28;20055;-81
2023/04/10 12:08:40;;;;;;;8.98;5.28;;;;;;;;;;5028060;28;20046;-81
2023/04/10 12:11:08;;;;;;;9.18;5.38;;;;;;;;;;5027022;28;20520;-82
2023/04/10 12:13:35;;;;;;;8.98;5.30;;;;;;;;;;5018384;28;20060;-81
2023/04/10 12:16:08;;;;;;;7.85;4.75;;;;;;;;;;5007899;28;20058;-81
2023/04/10 12:18:35;;;;;;;9.43;5.35;;;;;;;;;;5008554;28;20058;-79
2023/04/10 12:21:02;;;;;;;7.82;5.30;;;;;;;;;;5006814;28;20053;-80
2023/04/10 12:23:30;;;;;;;7.80;4.60;;;;;;;;;;5014679;28;20094;-80
2023/04/10 12:26:15;;;;;;;6.80;4.20;;;;;;;;;;5010944;28;20061;-80
2023/04/10 12:28:52;;;;;;;7.35;4.20;;;;;;;;;;5021184;28;20037;-80
2023/04/10 12:31:45;;;;;;;7.32;4.28;;;;;;;;;;5013602;28;20112;-80
2023/04/10 12:34:16;;;;;;;6.82;4.05;;;;;;;;;;5019462;28;20579;-79
2023/04/10 12:36:50;;;;;;;6.38;4.05;;;;;;;;;;5013904;28;20061;-81
2023/04/10 12:39:20;;;;;;;8.38;4.03;;;;;;;;;;5018734;28;20860;-81
2023/04/10 12:41:47;;;;;;;6.53;3.70;;;;;;;;;;5024993;28;20046;-79
2023/04/10 12:44:13;;;;;;;7.43;3.90;;;;;;;;;;5006573;28;20062;-80
2023/04/10 12:46:40;;;;;;;8.75;3.65;;;;;;;;;;5019197;28;20049;-81
2023/04/10 12:49:11;;;;;;;5.72;3.33;;;;;;;;;;5017810;28;20050;-78
2023/04/10 12:51:47;;;;;;;5.47;3.17;;;;;;;;;;5005813;28;20973;-79
2023/04/10 12:54:33;;;;;;;5.82;3.53;;;;;;;;;;5033412;28;20089;-78
2023/04/10 12:57:00;;;;;;;5.60;3.40;;;;;;;;;;5005861;28;20513;-78
2023/04/10 12:59:27;;;;;;;6.15;3.33;;;;;;;;;;5006165;28;20089;-79
2023/04/10 13:01:54;;;;;;;7.55;3.50;;;;;;;;;;5016864;28;20821;-78
2023/04/10 13:04:21;;;;;;;6.72;3.50;;;;;;;;;;5021858;28;20140;-80
2023/04/10 13:06:48;;;;;;;6.72;3.75;;;;;;;;;;5013383;28;20136;-79
2023/04/10 13:09:14;;;;;;;5.85;3.45;;;;;;;;;;5020409;28;20050;-78
2023/04/10 13:11:41;;;;;;;5.43;3.42;;;;;;;;;;5020854;28;20058;-78
2023/04/10 13:14:07;;;;;;;5.93;3.30;;;;;;;;;;5012600;28;20054;-78
2023/04/10 13:16:34;;;;;;;6.85;3.60;;;;;;;;;;5003837;28;20588;-77
2023/04/10 13:19:00;;;;;;;6.10;3.40;;;;;;;;;;5019903;28;20060;-78
2023/04/10 13:21:27;;;;;;;6.03;3.13;;;;;;;;;;5017676;28;21035;-77
2023/04/10 13:23:54;;;;;;;6.65;3.42;;;;;;;;;;5004167;28;20148;-78
2023/04/10 13:26:21;;;;;;;7.18;3.13;;;;;;;;;;5020884;28;20543;-78
2023/04/10 13:28:48;;;;;;;6.53;3.40;;;;;;;;;;5020129;28;20574;-78
2023/04/10 13:31:14;;;;;;;10.30;3.88;;;;;;;;;;5006086;28;20065;-78
2023/04/10 13:33:46;;;;;;;5.28;3.38;;;;;;;;;;5023165;28;20083;-78
2023/04/10 13:36:13;;;;;;;6.05;3.35;;;;;;;;;;5021448;28;20835;-78
2023/04/10 13:38:40;;;;;;;6.45;3.70;;;;;;;;;;5007997;28;20054;-78
2023/04/10 13:41:06;;;;;;;5.95;3.92;;;;;;;;;;5010472;28;20063;-78
2023/04/10 13:43:32;;;;;;;6.50;3.47;;;;;;;;;;5017180;28;21080;-78
2023/04/10 13:45:59;;;;;;;9.90;3.75;;;;;;;;;;5015655;28;20999;-78
2023/04/10 13:48:25;;;;;;;5.68;3.40;;;;;;;;;;5016054;28;20898;-77
2023/04/10 13:51:05;;;;;;;6.10;3.50;;;;;;;;;;5015847;28;20150;-78
2023/04/10 13:53:31;;;;;;;5.82;3.70;;;;;;;;;;5020678;28;20054;-78
2023/04/10 13:55:57;;;;;;;6.50;4.25;;;;;;;;;;5024915;28;20058;-77
2023/04/10 13:58:25;;;;;;;6.53;3.45;;;;;;;;;;5022343;28;20057;-79
2023/04/10 14:00:51;;;;;;;6.63;3.63;;;;;;;;;;5011915;28;20093;-78
2023/04/10 14:03:18;;;;;;;6.30;3.80;;;;;;;;;;5011354;28;20061;-78
2023/04/10 14:05:44;;;;;;;6.00;3.50;;;;;;;;;;5004159;28;20113;-78
2023/04/10 14:08:13;;;;;;;7.82;3.53;;;;;;;;;;5007677;28;20078;-79
2023/04/10 14:10:40;;;;;;;5.93;3.53;;;;;;;;;;5019743;28;20058;-78
2023/04/10 14:13:06;;;;;;;5.28;3.05;;;;;;;;;;5023902;28;20061;-79
2023/04/10 14:15:33;;;;;;;8.25;3.50;;;;;;;;;;5023612;28;20911;-78
2023/04/10 14:17:59;;;;;;;6.40;3.30;;;;;;;;;;5023365;28;20054;-78
2023/04/10 14:20:26;;;;;;;8.93;3.78;;;;;;;;;;5015898;28;20081;-78
2023/04/10 14:22:52;;;;;;;7.70;3.70;;;;;;;;;;5018562;28;20630;-78
2023/04/10 14:25:18;;;;;;;6.40;4.00;;;;;;;;;;5022574;28;20069;-77
2023/04/10 14:27:45;;;;;;;7.22;4.18;;;;;;;;;;5016909;28;20599;-77
2023/04/10 14:30:11;;;;;;;8.68;4.00;;;;;;;;;;5011583;28;20064;-76
2023/04/10 14:32:38;;;;;;;6.03;3.75;;;;;;;;;;5014739;28;20054;-76
2023/04/10 14:35:04;;;;;;;8.68;3.83;;;;;;;;;;5022421;28;20066;-76
2023/04/10 14:37:31;;;;;;;8.50;4.10;;;;;;;;;;5004202;28;20065;-77